Enya — WDH4350 — position and weather

sailwx.info

Track history (hours):
 
Tides and Currents Weather Stations Pressure Air Temp Water Temp Dewpoint Dewpoint Depression Visibility Wind Speed Wind Dir Waves Ship Positions

Enya

Owner: Pender Harbor LLC, SEATTLE, WA. More information available from US FCC via Universal Licensing System and Coast Guard Vessel Documentation Center.

Last reported at 2018-Jul-15 19:03 UTC. Time now 2018-Jul-16 19:53 UTC.
Position N 47°39' W 122°26'.

Length 14 m.

Type: Pleasure craft. MMSI: 367616820.

Date/timePositionNaut miles runAvg speedWind from/ knotsBaromVisibWave heightAir tempDewpointWater temp
2018-Jul-15 19:03N 47°39' W 122°26'110.3
2018-Jul-15 18:59N 47°39' W 122°27'6 9.9
2018-Jul-15 18:24N 47°44' W 122°32'8 0.4
2018-Jul-14 22:50N 47°36' W 122°35'410.2
2018-Jul-14 22:29N 47°34' W 122°30'5 9.4
2018-Jul-14 22:00N 47°37' W 122°25'  
2018-Jul-08 20:06N 47°39' W 122°27'111.4
2018-Jul-08 20:00N 47°40' W 122°27'510.2
2018-Jul-08 19:28N 47°44' W 122°33'5 0.2
2018-Jul-07 19:42N 47°38' W 122°35'310.8
2018-Jul-07 19:26N 47°36' W 122°35'1 0.1
2018-Jul-06 21:39N 47°34' W 122°35'1 9.4
2018-Jul-06 21:30N 47°35' W 122°34'4 8.6
2018-Jul-06 21:00N 47°32' W 122°30'13 0.6
2018-Jul-06 01:17N 47°19' W 122°35'3 8.4
2018-Jul-06 00:56N 47°19' W 122°30'4 9.7
2018-Jul-06 00:30N 47°21' W 122°24'5 9.2
2018-Jul-06 00:00N 47°25' W 122°23'5 9.8
2018-Jul-05 23:30N 47°30' W 122°25'5 9.5
2018-Jul-05 23:00N 47°35' W 122°25'3 6.4
2018-Jul-05 22:30N 47°38' W 122°23'  
Track history (hours):
 
Tides and Currents Weather Stations Pressure Air Temp Water Temp Dewpoint Dewpoint Depression Visibility Wind Speed Wind Dir Waves Ship Positions

Enya

Owner: Pender Harbor LLC, SEATTLE, WA. More information available from US FCC via Universal Licensing System and Coast Guard Vessel Documentation Center.

Last reported at 2018-Jul-15 19:03 UTC. Time now 2018-Jul-16 19:53 UTC.
Position N 47°39' W 122°26'.

Length 14 m.

Type: Pleasure craft. MMSI: 367616820.

Date/timePositionNaut miles runAvg speedWind from/ knotsBaromVisibWave heightAir tempDewpointWater temp
2018-Jul-15 19:03N 47°39' W 122°26'110.3
2018-Jul-15 18:59N 47°39' W 122°27'6 9.9
2018-Jul-15 18:24N 47°44' W 122°32'8 0.4
2018-Jul-14 22:50N 47°36' W 122°35'410.2
2018-Jul-14 22:29N 47°34' W 122°30'5 9.4
2018-Jul-14 22:00N 47°37' W 122°25'  
2018-Jul-08 20:06N 47°39' W 122°27'111.4
2018-Jul-08 20:00N 47°40' W 122°27'510.2
2018-Jul-08 19:28N 47°44' W 122°33'5 0.2
2018-Jul-07 19:42N 47°38' W 122°35'310.8
2018-Jul-07 19:26N 47°36' W 122°35'1 0.1
2018-Jul-06 21:39N 47°34' W 122°35'1 9.4
2018-Jul-06 21:30N 47°35' W 122°34'4 8.6
2018-Jul-06 21:00N 47°32' W 122°30'13 0.6
2018-Jul-06 01:17N 47°19' W 122°35'3 8.4
2018-Jul-06 00:56N 47°19' W 122°30'4 9.7
2018-Jul-06 00:30N 47°21' W 122°24'5 9.2
2018-Jul-06 00:00N 47°25' W 122°23'5 9.8
2018-Jul-05 23:30N 47°30' W 122°25'5 9.5
2018-Jul-05 23:00N 47°35' W 122°25'3 6.4
2018-Jul-05 22:30N 47°38' W 122°23'  

Dump ship's entire track history